Chincoteague, Virginia
Current Conditions -  °F | °C
As of 6:54 AM on Saturday 25 Oct 2014 (Local Time) from KWAL Reporting Station
Clear Clear  
Wind Chill: 45°   Ceiling: Unl
Heat Index: 48°   Visibility: 10mi
Dew Point: 42°   Wind: 6mph
Humidity: 80%   Direction: 330°NNW
Pressure: 29.95"   Gusts: NA
Location:  37.862°N, 75.4636°W
Report Text: KWAL 251054Z AUTO 33005KT 10SM CLR 09/06 A2995 RMK AO2 SLP140 T00890056
Loading
Personal Weather Stations






























Interactive Weather Map
Tropical Storm Tracking
New forecast layout! Learn more

10-Day Weather Forecast

Advertisements
Track Severe Weather on mobile